sensor_id;sensor_type;location;lat;lon;timestamp;P1;durP1;ratioP1;P2;durP2;ratioP2
13366;SDS011;6752;52.612;13.630;2023-04-01T00:04:42;10.60;;;7.03;;
13366;SDS011;6752;52.612;13.630;2023-04-01T00:09:45;13.68;;;8.30;;
13366;SDS011;6752;52.612;13.630;2023-04-01T00:14:47;11.25;;;7.32;;
13366;SDS011;6752;52.612;13.630;2023-04-01T00:19:49;12.07;;;7.10;;
13366;SDS011;6752;52.612;13.630;2023-04-01T00:24:52;11.82;;;7.90;;
13366;SDS011;6752;52.612;13.630;2023-04-01T00:29:54;10.88;;;7.37;;
13366;SDS011;6752;52.612;13.630;2023-04-01T00:34:57;10.48;;;6.70;;
13366;SDS011;6752;52.612;13.630;2023-04-01T00:39:59;10.40;;;6.20;;
13366;SDS011;6752;52.612;13.630;2023-04-01T00:45:22;9.55;;;6.32;;
13366;SDS011;6752;52.612;13.630;2023-04-01T00:50:04;12.20;;;5.70;;
13366;SDS011;6752;52.612;13.630;2023-04-01T00:55:06;11.30;;;5.80;;
13366;SDS011;6752;52.612;13.630;2023-04-01T01:00:10;11.73;;;5.50;;
13366;SDS011;6752;52.612;13.630;2023-04-01T01:05:12;9.23;;;5.68;;
13366;SDS011;6752;52.612;13.630;2023-04-01T01:10:17;10.63;;;6.37;;
13366;SDS011;6752;52.612;13.630;2023-04-01T01:20:36;12.10;;;7.57;;
13366;SDS011;6752;52.612;13.630;2023-04-01T01:25:44;11.05;;;7.43;;
13366;SDS011;6752;52.612;13.630;2023-04-01T01:36:13;10.93;;;7.20;;
13366;SDS011;6752;52.612;13.630;2023-04-01T01:41:16;10.65;;;6.97;;
13366;SDS011;6752;52.612;13.630;2023-04-01T01:46:19;11.50;;;6.87;;
13366;SDS011;6752;52.612;13.630;2023-04-01T01:51:21;13.05;;;7.37;;
13366;SDS011;6752;52.612;13.630;2023-04-01T01:56:23;10.90;;;7.18;;
13366;SDS011;6752;52.612;13.630;2023-04-01T02:01:26;12.90;;;7.20;;
13366;SDS011;6752;52.612;13.630;2023-04-01T02:06:28;13.80;;;7.03;;
13366;SDS011;6752;52.612;13.630;2023-04-01T02:11:37;12.33;;;7.77;;
13366;SDS011;6752;52.612;13.630;2023-04-01T02:16:51;12.57;;;8.05;;
13366;SDS011;6752;52.612;13.630;2023-04-01T02:21:56;11.35;;;7.75;;
13366;SDS011;6752;52.612;13.630;2023-04-01T02:26:58;11.00;;;8.32;;
13366;SDS011;6752;52.612;13.630;2023-04-01T02:32:00;11.00;;;7.97;;
13366;SDS011;6752;52.612;13.630;2023-04-01T02:42:04;11.38;;;8.00;;
13366;SDS011;6752;52.612;13.630;2023-04-01T02:47:07;12.43;;;7.65;;
13366;SDS011;6752;52.612;13.630;2023-04-01T02:52:15;12.80;;;9.33;;
13366;SDS011;6752;52.612;13.630;2023-04-01T02:57:18;11.70;;;8.40;;
13366;SDS011;6752;52.612;13.630;2023-04-01T03:02:20;14.25;;;9.90;;
13366;SDS011;6752;52.612;13.630;2023-04-01T03:07:23;15.02;;;8.98;;
13366;SDS011;6752;52.612;13.630;2023-04-01T03:12:25;17.37;;;9.38;;
13366;SDS011;6752;52.612;13.630;2023-04-01T03:17:28;18.52;;;9.00;;
13366;SDS011;6752;52.612;13.630;2023-04-01T03:22:30;30.83;;;24.90;;
13366;SDS011;6752;52.612;13.630;2023-04-01T03:27:33;18.33;;;11.27;;
13366;SDS011;6752;52.612;13.630;2023-04-01T03:32:35;14.27;;;9.38;;
13366;SDS011;6752;52.612;13.630;2023-04-01T03:37:38;12.20;;;9.43;;
13366;SDS011;6752;52.612;13.630;2023-04-01T03:42:40;11.52;;;8.55;;
13366;SDS011;6752;52.612;13.630;2023-04-01T03:47:42;12.65;;;8.70;;
13366;SDS011;6752;52.612;13.630;2023-04-01T03:52:45;14.60;;;8.48;;
13366;SDS011;6752;52.612;13.630;2023-04-01T03:57:47;13.15;;;8.85;;
13366;SDS011;6752;52.612;13.630;2023-04-01T04:02:52;14.13;;;8.57;;
13366;SDS011;6752;52.612;13.630;2023-04-01T04:07:54;14.77;;;9.65;;
13366;SDS011;6752;52.612;13.630;2023-04-01T04:12:57;12.47;;;8.47;;
13366;SDS011;6752;52.612;13.630;2023-04-01T04:17:59;12.68;;;7.80;;
13366;SDS011;6752;52.612;13.630;2023-04-01T04:23:02;16.80;;;8.20;;
13366;SDS011;6752;52.612;13.630;2023-04-01T04:28:04;15.18;;;9.13;;
13366;SDS011;6752;52.612;13.630;2023-04-01T04:33:07;15.88;;;9.27;;
13366;SDS011;6752;52.612;13.630;2023-04-01T04:38:09;15.07;;;9.85;;
13366;SDS011;6752;52.612;13.630;2023-04-01T04:43:12;14.55;;;9.88;;
13366;SDS011;6752;52.612;13.630;2023-04-01T04:48:15;15.75;;;11.10;;
13366;SDS011;6752;52.612;13.630;2023-04-01T04:53:17;14.95;;;11.23;;
13366;SDS011;6752;52.612;13.630;2023-04-01T04:58:19;15.68;;;11.60;;
13366;SDS011;6752;52.612;13.630;2023-04-01T05:03:22;15.33;;;11.70;;
13366;SDS011;6752;52.612;13.630;2023-04-01T05:08:25;15.80;;;11.43;;
13366;SDS011;6752;52.612;13.630;2023-04-01T05:13:27;14.90;;;12.30;;
13366;SDS011;6752;52.612;13.630;2023-04-01T05:18:29;14.70;;;11.30;;
13366;SDS011;6752;52.612;13.630;2023-04-01T05:23:32;16.05;;;9.30;;
13366;SDS011;6752;52.612;13.630;2023-04-01T05:28:34;16.05;;;9.60;;
13366;SDS011;6752;52.612;13.630;2023-04-01T05:33:37;17.00;;;10.07;;
13366;SDS011;6752;52.612;13.630;2023-04-01T05:38:39;13.93;;;9.85;;
13366;SDS011;6752;52.612;13.630;2023-04-01T05:43:42;15.55;;;9.93;;
13366;SDS011;6752;52.612;13.630;2023-04-01T05:48:46;15.48;;;11.32;;
13366;SDS011;6752;52.612;13.630;2023-04-01T05:53:48;14.63;;;9.55;;
13366;SDS011;6752;52.612;13.630;2023-04-01T05:58:51;14.07;;;9.52;;
13366;SDS011;6752;52.612;13.630;2023-04-01T06:03:53;15.13;;;10.02;;
13366;SDS011;6752;52.612;13.630;2023-04-01T06:08:56;13.43;;;9.65;;
13366;SDS011;6752;52.612;13.630;2023-04-01T06:14:05;17.83;;;10.63;;
13366;SDS011;6752;52.612;13.630;2023-04-01T06:19:09;14.98;;;10.38;;
13366;SDS011;6752;52.612;13.630;2023-04-01T06:24:26;14.63;;;10.68;;
13366;SDS011;6752;52.612;13.630;2023-04-01T06:40:28;13.07;;;9.40;;
13366;SDS011;6752;52.612;13.630;2023-04-01T06:45:53;13.05;;;8.43;;
13366;SDS011;6752;52.612;13.630;2023-04-01T06:56:31;17.00;;;10.95;;
13366;SDS011;6752;52.612;13.630;2023-04-01T07:01:41;14.07;;;8.85;;
13366;SDS011;6752;52.612;13.630;2023-04-01T07:06:54;12.98;;;8.48;;
13366;SDS011;6752;52.612;13.630;2023-04-01T07:11:56;19.50;;;13.02;;
13366;SDS011;6752;52.612;13.630;2023-04-01T07:17:05;21.87;;;15.55;;
13366;SDS011;6752;52.612;13.630;2023-04-01T07:27:24;28.23;;;19.17;;
13366;SDS011;6752;52.612;13.630;2023-04-01T07:32:30;32.58;;;19.48;;
13366;SDS011;6752;52.612;13.630;2023-04-01T07:37:31;29.90;;;21.43;;
13366;SDS011;6752;52.612;13.630;2023-04-01T07:43:00;28.90;;;18.45;;
13366;SDS011;6752;52.612;13.630;2023-04-01T07:53:29;23.02;;;17.52;;
13366;SDS011;6752;52.612;13.630;2023-04-01T07:58:40;23.92;;;17.35;;
13366;SDS011;6752;52.612;13.630;2023-04-01T08:09:22;24.02;;;17.48;;
13366;SDS011;6752;52.612;13.630;2023-04-01T08:14:32;25.17;;;18.50;;
13366;SDS011;6752;52.612;13.630;2023-04-01T08:25:04;23.67;;;19.25;;
13366;SDS011;6752;52.612;13.630;2023-04-01T08:30:19;23.73;;;18.98;;
13366;SDS011;6752;52.612;13.630;2023-04-01T08:35:24;26.75;;;19.85;;
13366;SDS011;6752;52.612;13.630;2023-04-01T08:41:16;28.05;;;21.92;;
13366;SDS011;6752;52.612;13.630;2023-04-01T08:51:51;29.50;;;24.27;;
13366;SDS011;6752;52.612;13.630;2023-04-01T09:07:45;20.93;;;18.90;;
13366;SDS011;6752;52.612;13.630;2023-04-01T09:12:59;18.98;;;16.98;;
13366;SDS011;6752;52.612;13.630;2023-04-01T09:18:21;19.80;;;17.23;;
13366;SDS011;6752;52.612;13.630;2023-04-01T09:23:28;20.67;;;16.83;;
13366;SDS011;6752;52.612;13.630;2023-04-01T09:28:28;21.23;;;18.02;;
13366;SDS011;6752;52.612;13.630;2023-04-01T09:38:56;20.23;;;18.02;;
13366;SDS011;6752;52.612;13.630;2023-04-01T09:44:16;19.65;;;17.42;;
13366;SDS011;6752;52.612;13.630;2023-04-01T10:21:22;9.52;;;7.90;;
13366;SDS011;6752;52.612;13.630;2023-04-01T10:37:39;8.57;;;6.62;;
13366;SDS011;6752;52.612;13.630;2023-04-01T10:53:49;7.32;;;6.05;;
13366;SDS011;6752;52.612;13.630;2023-04-01T11:10:08;8.52;;;6.57;;
13366;SDS011;6752;52.612;13.630;2023-04-01T11:15:30;9.55;;;7.43;;
13366;SDS011;6752;52.612;13.630;2023-04-01T11:20:56;9.70;;;7.47;;
13366;SDS011;6752;52.612;13.630;2023-04-01T11:36:33;7.75;;;6.95;;
13366;SDS011;6752;52.612;13.630;2023-04-01T11:41:52;10.57;;;6.87;;
13366;SDS011;6752;52.612;13.630;2023-04-01T11:47:19;9.07;;;7.45;;
13366;SDS011;6752;52.612;13.630;2023-04-01T12:03:09;13.55;;;11.52;;
13366;SDS011;6752;52.612;13.630;2023-04-01T12:13:53;13.38;;;11.90;;
13366;SDS011;6752;52.612;13.630;2023-04-01T12:24:18;16.15;;;11.70;;
13366;SDS011;6752;52.612;13.630;2023-04-01T12:34:57;17.37;;;14.18;;
13366;SDS011;6752;52.612;13.630;2023-04-01T12:40:02;17.12;;;15.35;;
13366;SDS011;6752;52.612;13.630;2023-04-01T12:45:20;18.20;;;14.90;;
13366;SDS011;6752;52.612;13.630;2023-04-01T12:50:37;15.10;;;12.98;;
13366;SDS011;6752;52.612;13.630;2023-04-01T12:55:48;20.02;;;16.83;;
13366;SDS011;6752;52.612;13.630;2023-04-01T13:22:07;16.62;;;14.75;;
13366;SDS011;6752;52.612;13.630;2023-04-01T13:27:28;16.58;;;14.82;;
13366;SDS011;6752;52.612;13.630;2023-04-01T13:32:47;19.75;;;14.75;;
13366;SDS011;6752;52.612;13.630;2023-04-01T13:43:22;17.23;;;14.25;;
13366;SDS011;6752;52.612;13.630;2023-04-01T13:48:28;13.68;;;12.27;;
13366;SDS011;6752;52.612;13.630;2023-04-01T13:53:35;15.60;;;13.60;;
13366;SDS011;6752;52.612;13.630;2023-04-01T14:09:51;15.30;;;13.70;;
13366;SDS011;6752;52.612;13.630;2023-04-01T14:30:50;15.50;;;13.90;;
13366;SDS011;6752;52.612;13.630;2023-04-01T14:46:50;17.40;;;15.60;;
13366;SDS011;6752;52.612;13.630;2023-04-01T14:57:33;14.90;;;12.00;;
13366;SDS011;6752;52.612;13.630;2023-04-01T15:02:43;12.40;;;11.10;;
13366;SDS011;6752;52.612;13.630;2023-04-01T15:18:09;11.47;;;10.27;;
13366;SDS011;6752;52.612;13.630;2023-04-01T15:39:05;15.18;;;12.23;;
13366;SDS011;6752;52.612;13.630;2023-04-01T15:49:37;15.35;;;12.63;;
13366;SDS011;6752;52.612;13.630;2023-04-01T16:05:26;13.90;;;11.32;;
13366;SDS011;6752;52.612;13.630;2023-04-01T16:21:27;11.60;;;10.38;;
13366;SDS011;6752;52.612;13.630;2023-04-01T16:26:36;13.32;;;11.35;;
13366;SDS011;6752;52.612;13.630;2023-04-01T16:37:13;13.80;;;10.70;;
13366;SDS011;6752;52.612;13.630;2023-04-01T16:42:17;13.65;;;10.13;;
13366;SDS011;6752;52.612;13.630;2023-04-01T16:47:21;14.73;;;12.50;;
13366;SDS011;6752;52.612;13.630;2023-04-01T16:57:25;11.20;;;9.48;;
13366;SDS011;6752;52.612;13.630;2023-04-01T17:02:38;13.05;;;11.63;;
13366;SDS011;6752;52.612;13.630;2023-04-01T17:07:48;18.20;;;12.32;;
13366;SDS011;6752;52.612;13.630;2023-04-01T17:23:43;11.90;;;10.20;;
13366;SDS011;6752;52.612;13.630;2023-04-01T17:34:23;13.02;;;10.48;;
13366;SDS011;6752;52.612;13.630;2023-04-01T17:44:43;14.07;;;11.43;;
13366;SDS011;6752;52.612;13.630;2023-04-01T18:11:42;17.42;;;12.65;;
13366;SDS011;6752;52.612;13.630;2023-04-01T18:16:56;17.65;;;11.43;;
13366;SDS011;6752;52.612;13.630;2023-04-01T18:27:43;18.45;;;11.90;;
13366;SDS011;6752;52.612;13.630;2023-04-01T18:32:55;18.70;;;11.73;;
13366;SDS011;6752;52.612;13.630;2023-04-01T18:53:55;23.08;;;14.73;;
13366;SDS011;6752;52.612;13.630;2023-04-01T19:04:33;23.25;;;14.68;;
13366;SDS011;6752;52.612;13.630;2023-04-01T19:09:48;22.40;;;14.27;;
13366;SDS011;6752;52.612;13.630;2023-04-01T19:25:37;18.33;;;13.55;;
13366;SDS011;6752;52.612;13.630;2023-04-01T19:46:45;26.98;;;14.68;;
13366;SDS011;6752;52.612;13.630;2023-04-01T19:51:07;27.23;;;15.55;;
13366;SDS011;6752;52.612;13.630;2023-04-01T19:56:31;28.40;;;16.90;;
13366;SDS011;6752;52.612;13.630;2023-04-01T20:01:36;23.50;;;16.55;;
13366;SDS011;6752;52.612;13.630;2023-04-01T20:06:43;25.25;;;16.50;;
13366;SDS011;6752;52.612;13.630;2023-04-01T20:11:53;24.90;;;16.12;;
13366;SDS011;6752;52.612;13.630;2023-04-01T20:27:38;19.50;;;13.50;;
13366;SDS011;6752;52.612;13.630;2023-04-01T20:32:45;18.40;;;12.80;;
13366;SDS011;6752;52.612;13.630;2023-04-01T20:42:59;18.62;;;10.98;;
13366;SDS011;6752;52.612;13.630;2023-04-01T20:58:38;18.23;;;11.12;;
13366;SDS011;6752;52.612;13.630;2023-04-01T21:09:20;16.00;;;11.35;;
13366;SDS011;6752;52.612;13.630;2023-04-01T21:41:08;14.15;;;11.23;;
13366;SDS011;6752;52.612;13.630;2023-04-01T21:46:11;14.38;;;10.75;;
13366;SDS011;6752;52.612;13.630;2023-04-01T21:51:23;14.57;;;9.85;;
13366;SDS011;6752;52.612;13.630;2023-04-01T22:01:50;14.93;;;10.73;;
13366;SDS011;6752;52.612;13.630;2023-04-01T22:07:08;14.05;;;10.32;;
13366;SDS011;6752;52.612;13.630;2023-04-01T22:12:20;19.65;;;10.63;;
13366;SDS011;6752;52.612;13.630;2023-04-01T22:17:23;12.85;;;11.27;;
13366;SDS011;6752;52.612;13.630;2023-04-01T22:22:45;11.07;;;9.65;;
13366;SDS011;6752;52.612;13.630;2023-04-01T22:28:09;15.75;;;10.20;;
13366;SDS011;6752;52.612;13.630;2023-04-01T22:33:27;18.02;;;10.60;;
13366;SDS011;6752;52.612;13.630;2023-04-01T22:43:39;13.13;;;9.90;;
13366;SDS011;6752;52.612;13.630;2023-04-01T22:49:29;13.02;;;10.25;;
13366;SDS011;6752;52.612;13.630;2023-04-01T22:59:08;15.93;;;9.10;;
13366;SDS011;6752;52.612;13.630;2023-04-01T23:04:14;12.15;;;8.77;;
13366;SDS011;6752;52.612;13.630;2023-04-01T23:09:15;10.65;;;8.60;;
13366;SDS011;6752;52.612;13.630;2023-04-01T23:19:26;10.85;;;9.05;;
13366;SDS011;6752;52.612;13.630;2023-04-01T23:24:37;12.30;;;8.38;;
13366;SDS011;6752;52.612;13.630;2023-04-01T23:29:49;10.93;;;7.60;;
13366;SDS011;6752;52.612;13.630;2023-04-01T23:39:54;14.40;;;9.65;;
13366;SDS011;6752;52.612;13.630;2023-04-01T23:44:57;12.50;;;9.98;;
13366;SDS011;6752;52.612;13.630;2023-04-01T23:50:03;10.48;;;8.93;;
13366;SDS011;6752;52.612;13.630;2023-04-01T23:55:12;13.20;;;8.68;;
